Time;durP1;ratioP1;P1;durP2;ratioP2;P2;SDS_P1;SDS_P2;PMS_P1;PMS_P2;Temp;Humidity;BMP_temperature;BMP_pressure;BME280_temperature;BME280_humidity;BME280_pressure;Samples;Min_cycle;Max_cycle;Signal;HPM_P1;HPM_P2
2020/12/21 00:01:54;;;;;;;39.97;10.18;;;11.10;66.60;;;;;;5025846;28;20438;-65
2020/12/21 00:04:20;;;;;;;39.55;10.13;;;11.20;66.60;;;;;;5027593;28;20053;-65
2020/12/21 00:06:56;;;;;;;29.92;9.27;;;11.30;66.70;;;;;;5027546;28;20776;-65
2020/12/21 00:09:22;;;;;;;34.10;9.27;;;11.30;66.70;;;;;;5026968;28;20052;-65
2020/12/21 00:11:49;;;;;;;29.23;9.20;;;11.40;66.80;;;;;;5026526;28;20051;-65
2020/12/21 00:14:15;;;;;;;35.60;9.45;;;11.40;66.90;;;;;;5024637;28;20558;-65
2020/12/21 00:16:44;;;;;;;29.45;9.20;;;11.50;67.50;;;;;;5034179;28;20652;-65
2020/12/21 00:19:11;;;;;;;29.08;9.32;;;11.50;66.80;;;;;;5027807;28;20051;-65
2020/12/21 00:21:38;;;;;;;30.00;7.85;;;11.60;66.80;;;;;;5030319;28;20038;-65
2020/12/21 00:24:05;;;;;;;27.02;8.82;;;11.60;66.70;;;;;;5047330;28;20048;-65
2020/12/21 00:26:34;;;;;;;38.83;8.40;;;11.70;66.70;;;;;;5030321;28;20405;-65
2020/12/21 00:29:00;;;;;;;28.48;8.82;;;11.70;66.70;;;;;;5033069;28;20870;-65
2020/12/21 00:31:28;;;;;;;30.55;8.02;;;11.70;66.50;;;;;;5031403;28;20037;-65
2020/12/21 00:33:54;;;;;;;29.27;8.27;;;11.70;66.50;;;;;;5034260;28;20056;-65
2020/12/21 00:36:20;;;;;;;35.58;8.00;;;11.80;66.50;;;;;;5031946;28;20045;-65
2020/12/21 00:38:47;;;;;;;33.75;8.05;;;11.80;67.20;;;;;;5036319;28;20072;-65
2020/12/21 00:41:17;;;;;;;24.05;7.88;;;11.80;66.50;;;;;;5034976;28;20041;-65
2020/12/21 00:43:45;;;;;;;20.35;7.40;;;11.80;66.50;;;;;;5031214;28;20055;-65
2020/12/21 00:46:31;;;;;;;31.35;7.55;;;11.80;66.50;;;;;;5025940;28;20029;-65
2020/12/21 00:48:58;;;;;;;28.52;7.72;;;11.80;66.50;;;;;;5041199;28;20401;-65
2020/12/21 00:51:24;;;;;;;21.70;7.03;;;11.80;66.50;;;;;;5024344;28;20547;-65
2020/12/21 00:53:50;;;;;;;31.15;7.53;;;11.90;66.50;;;;;;5027753;28;20045;-65
2020/12/21 00:56:18;;;;;;;24.05;7.00;;;11.90;66.60;;;;;;5044883;28;20037;-65
2020/12/21 00:58:45;;;;;;;28.85;7.07;;;11.90;66.70;;;;;;5031146;28;20053;-65
2020/12/21 01:01:22;;;;;;;29.63;6.72;;;11.90;66.50;;;;;;5023603;28;20041;-65
2020/12/21 01:03:48;;;;;;;33.55;7.03;;;11.90;66.50;;;;;;5028233;28;20041;-65
2020/12/21 01:06:14;;;;;;;29.63;6.50;;;12.00;66.60;;;;;;5026647;28;20045;-65
2020/12/21 01:08:40;;;;;;;20.63;6.43;;;12.00;66.40;;;;;;5035900;28;20033;-65
2020/12/21 01:11:14;;;;;;;24.83;6.85;;;12.00;66.30;;;;;;5024639;28;20087;-65
2020/12/21 01:13:41;;;;;;;22.38;6.85;;;12.00;66.10;;;;;;5028595;28;20055;-65
2020/12/21 01:16:07;;;;;;;24.27;6.35;;;11.90;65.90;;;;;;5030619;28;20399;-65
2020/12/21 01:18:36;;;;;;;23.67;6.10;;;11.90;65.80;;;;;;5029288;28;20095;-65
2020/12/21 01:21:02;;;;;;;30.95;6.38;;;11.90;65.60;;;;;;5030331;28;20048;-65
2020/12/21 01:23:28;;;;;;;26.65;6.35;;;11.80;65.60;;;;;;5030412;28;20123;-65
2020/12/21 01:25:53;;;;;;;29.50;6.53;;;11.80;65.70;;;;;;5025187;28;20569;-65
2020/12/21 01:28:19;;;;;;;37.28;6.63;;;11.80;65.70;;;;;;5031916;28;20044;-65
2020/12/21 01:30:45;;;;;;;21.50;5.80;;;11.80;65.80;;;;;;5027636;28;20029;-65
2020/12/21 01:33:11;;;;;;;22.58;6.53;;;11.80;65.90;;;;;;5029029;28;20032;-65
2020/12/21 01:35:37;;;;;;;19.70;6.30;;;11.90;65.90;;;;;;5033335;28;20061;-65
2020/12/21 01:38:03;;;;;;;20.17;6.07;;;11.90;66.00;;;;;;5031472;28;20034;-65
2020/12/21 01:40:31;;;;;;;24.02;6.32;;;11.90;65.90;;;;;;5042006;28;20102;-65
2020/12/21 01:42:57;;;;;;;21.15;6.55;;;11.90;65.70;;;;;;5031563;28;20033;-65
2020/12/21 01:45:22;;;;;;;23.75;6.05;;;11.90;65.50;;;;;;5032418;28;20029;-65
2020/12/21 01:47:48;;;;;;;20.13;5.80;;;11.90;65.30;;;;;;5032703;28;20127;-65
2020/12/21 01:50:14;;;;;;;22.27;5.50;;;11.90;65.40;;;;;;5040930;28;20118;-65
2020/12/21 01:52:40;;;;;;;17.65;6.03;;;11.90;65.50;;;;;;5029468;28;20037;-65
2020/12/21 01:55:05;;;;;;;18.38;5.85;;;11.90;65.60;;;;;;5028242;28;20029;-65
2020/12/21 01:57:31;;;;;;;21.08;5.22;;;11.90;65.60;;;;;;5029011;28;20037;-65
2020/12/21 01:59:57;;;;;;;18.30;5.30;;;11.90;65.60;;;;;;5029128;28;20041;-65
2020/12/21 02:02:23;;;;;;;24.58;5.55;;;12.00;65.60;;;;;;5028943;28;20034;-65
2020/12/21 02:04:48;;;;;;;23.60;5.60;;;12.00;65.60;;;;;;5027125;28;20485;-65
2020/12/21 02:07:14;;;;;;;17.67;5.50;;;12.00;65.50;;;;;;5027898;28;20049;-65
2020/12/21 02:09:42;;;;;;;19.45;5.45;;;12.10;65.50;;;;;;5027117;28;20136;-65
2020/12/21 02:12:08;;;;;;;20.75;5.10;;;12.10;65.40;;;;;;5026095;28;20033;-65
2020/12/21 02:14:33;;;;;;;19.13;5.25;;;12.10;65.30;;;;;;5031980;28;20048;-65
2020/12/21 02:16:59;;;;;;;18.23;5.60;;;12.10;65.20;;;;;;5028068;28;20405;-65
2020/12/21 02:19:25;;;;;;;17.77;5.00;;;12.10;65.10;;;;;;5027556;28;20045;-65
2020/12/21 02:21:50;;;;;;;18.70;5.70;;;12.10;65.10;;;;;;5031244;28;20044;-65
2020/12/21 02:24:16;;;;;;;13.98;5.53;;;12.10;64.90;;;;;;5028128;28;21720;-65
2020/12/21 02:26:41;;;;;;;15.90;5.00;;;12.10;64.70;;;;;;5030971;28;20509;-65
2020/12/21 02:29:07;;;;;;;26.73;5.18;;;12.10;64.50;;;;;;5026125;28;20076;-65
2020/12/21 02:31:33;;;;;;;23.50;5.55;;;12.00;64.30;;;;;;5026009;28;20041;-65
2020/12/21 02:33:59;;;;;;;18.55;5.25;;;11.90;64.20;;;;;;5027819;28;20044;-65
2020/12/21 02:36:25;;;;;;;15.50;4.90;;;11.90;64.00;;;;;;5022934;28;20055;-65
2020/12/21 02:38:50;;;;;;;16.48;5.15;;;11.80;63.80;;;;;;5027766;28;20051;-65
2020/12/21 02:41:18;;;;;;;17.00;5.43;;;11.70;63.80;;;;;;5024740;28;20038;-65
2020/12/21 02:43:44;;;;;;;12.82;5.40;;;11.60;63.80;;;;;;5027833;28;20049;-65
2020/12/21 02:46:11;;;;;;;16.73;5.20;;;11.50;63.80;;;;;;5027300;28;20044;-65
2020/12/21 02:48:37;;;;;;;19.60;5.60;;;11.50;63.90;;;;;;5023651;28;20033;-65
2020/12/21 02:51:03;;;;;;;20.08;5.65;;;11.40;64.00;;;;;;5027652;28;20524;-65
2020/12/21 02:53:28;;;;;;;22.92;6.38;;;11.40;64.30;;;;;;5028888;28;20143;-65
2020/12/21 02:55:54;;;;;;;17.90;6.22;;;11.30;64.40;;;;;;5027511;28;20037;-65
2020/12/21 02:58:20;;;;;;;24.40;5.90;;;11.30;64.50;;;;;;5031346;28;20029;-65
2020/12/21 03:00:46;;;;;;;22.20;6.38;;;11.30;64.50;;;;;;5025590;28;20148;-65
2020/12/21 03:03:12;;;;;;;20.50;5.97;;;11.30;64.70;;;;;;5023467;28;20049;-65
2020/12/21 03:05:39;;;;;;;17.75;6.03;;;11.30;64.70;;;;;;5030978;28;20144;-65
2020/12/21 03:08:06;;;;;;;22.77;6.25;;;11.30;64.60;;;;;;5022873;28;20067;-65
2020/12/21 03:10:32;;;;;;;19.52;5.82;;;11.20;64.40;;;;;;5026998;28;20052;-65
2020/12/21 03:12:58;;;;;;;21.17;5.70;;;11.20;64.30;;;;;;5040210;28;20447;-65
2020/12/21 03:15:24;;;;;;;22.88;5.78;;;11.20;64.30;;;;;;5029691;28;20044;-65
2020/12/21 03:17:49;;;;;;;29.58;7.22;;;11.10;64.10;;;;;;5026233;28;20041;-65
2020/12/21 03:20:15;;;;;;;25.20;6.03;;;11.10;64.00;;;;;;5023528;28;20080;-65
2020/12/21 03:22:41;;;;;;;18.15;6.07;;;11.00;64.00;;;;;;5026948;28;20206;-65
2020/12/21 03:25:06;;;;;;;12.20;5.82;;;10.90;64.20;;;;;;5023350;28;20041;-65
2020/12/21 03:27:32;;;;;;;23.85;6.18;;;10.90;64.30;;;;;;5023298;28;20844;-65
2020/12/21 03:29:58;;;;;;;25.92;5.85;;;10.80;64.10;;;;;;5025244;28;20029;-65
2020/12/21 03:32:24;;;;;;;24.38;5.65;;;10.80;64.10;;;;;;5026197;28;20057;-65
2020/12/21 03:34:52;;;;;;;18.58;5.78;;;10.70;64.00;;;;;;5026135;28;20163;-65
2020/12/21 03:37:18;;;;;;;27.60;6.57;;;10.70;64.00;;;;;;5045187;28;20178;-65
2020/12/21 03:39:43;;;;;;;28.17;6.25;;;10.60;64.10;;;;;;5021540;28;20033;-65
2020/12/21 03:42:09;;;;;;;27.70;6.60;;;10.60;64.20;;;;;;5028384;28;20052;-65
2020/12/21 03:44:35;;;;;;;23.10;6.47;;;10.60;64.20;;;;;;5023405;28;20049;-65
2020/12/21 03:47:00;;;;;;;26.00;6.75;;;10.50;64.30;;;;;;5027757;28;20080;-65
2020/12/21 03:49:26;;;;;;;21.45;6.78;;;10.50;64.40;;;;;;5027978;28;20119;-65
2020/12/21 03:51:54;;;;;;;27.10;7.65;;;10.50;64.60;;;;;;5029889;28;20462;-65
2020/12/21 03:54:20;;;;;;;23.95;7.10;;;10.40;64.60;;;;;;5031370;28;20629;-65
2020/12/21 03:56:45;;;;;;;21.42;6.70;;;10.40;64.90;;;;;;5030540;28;20041;-65
2020/12/21 03:59:11;;;;;;;22.65;7.50;;;10.50;65.40;;;;;;5026342;28;23588;-65
2020/12/21 04:01:37;;;;;;;31.15;7.55;;;10.50;65.60;;;;;;5030342;28;20422;-65
2020/12/21 04:04:06;;;;;;;27.80;7.68;;;10.50;65.50;;;;;;5029868;28;20098;-65
2020/12/21 04:06:33;;;;;;;24.08;7.28;;;10.50;65.20;;;;;;5029346;28;20041;-65
2020/12/21 04:08:58;;;;;;;25.65;7.45;;;10.50;65.30;;;;;;5030316;28;20044;-65
2020/12/21 04:11:24;;;;;;;22.83;7.55;;;10.50;65.30;;;;;;5024044;28;20053;-65
2020/12/21 04:13:50;;;;;;;25.10;7.32;;;10.50;65.30;;;;;;5023716;28;20037;-65
2020/12/21 04:16:15;;;;;;;28.27;7.78;;;10.50;65.20;;;;;;5028135;28;20373;-65
2020/12/21 04:18:41;;;;;;;23.40;7.95;;;10.50;65.30;;;;;;5026734;28;22347;-65
2020/12/21 04:21:11;;;;;;;30.50;7.60;;;10.50;65.20;;;;;;5027004;28;20437;-65
2020/12/21 04:23:37;;;;;;;23.67;8.40;;;10.50;65.10;;;;;;5030058;28;20383;-65
2020/12/21 04:26:03;;;;;;;35.35;8.18;;;10.40;65.10;;;;;;5031315;28;20048;-65
2020/12/21 04:28:29;;;;;;;34.83;7.50;;;10.40;65.10;;;;;;5024915;28;20041;-65
2020/12/21 04:30:54;;;;;;;26.25;7.70;;;10.40;65.20;;;;;;5025617;28;20033;-65
2020/12/21 04:33:20;;;;;;;26.50;8.18;;;10.30;65.20;;;;;;5024655;28;20120;-65
2020/12/21 04:35:45;;;;;;;19.52;7.00;;;10.30;65.30;;;;;;5038038;28;20072;-65
2020/12/21 04:38:11;;;;;;;24.00;7.45;;;10.30;65.30;;;;;;5028060;28;20103;-65
2020/12/21 04:40:36;;;;;;;22.30;7.60;;;10.30;65.30;;;;;;5022899;28;20128;-65
2020/12/21 04:43:02;;;;;;;23.27;8.75;;;10.20;65.00;;;;;;5027291;28;20048;-65
2020/12/21 04:45:33;;;;;;;25.85;7.65;;;10.20;64.90;;;;;;5022245;28;20095;-65
2020/12/21 04:48:00;;;;;;;24.50;7.97;;;10.10;64.80;;;;;;5022224;28;20167;-65
2020/12/21 04:50:32;;;;;;;30.67;9.65;;;10.10;64.80;;;;;;5024469;28;20581;-65
2020/12/21 04:52:58;;;;;;;26.83;8.10;;;10.10;65.10;;;;;;5025930;28;20094;-65
2020/12/21 04:55:24;;;;;;;26.55;8.80;;;10.00;65.20;;;;;;5028995;28;20132;-65
2020/12/21 04:58:00;;;;;;;22.08;8.18;;;10.00;65.20;;;;;;5031693;28;20038;-65
2020/12/21 05:00:28;;;;;;;29.27;8.48;;;10.00;65.30;;;;;;5032757;28;20052;-65
2020/12/21 05:02:55;;;;;;;31.30;8.32;;;10.00;65.20;;;;;;5027504;28;20037;-65
2020/12/21 05:05:27;;;;;;;24.38;8.27;;;9.90;65.40;;;;;;5029750;28;20037;-65
2020/12/21 05:07:53;;;;;;;30.67;8.40;;;9.90;65.40;;;;;;5044457;28;20060;-65
2020/12/21 05:10:18;;;;;;;37.80;8.80;;;9.90;65.40;;;;;;5026787;28;20517;-65
2020/12/21 05:12:44;;;;;;;32.53;9.00;;;9.90;65.40;;;;;;5024299;28;20119;-65
2020/12/21 05:15:14;;;;;;;35.72;8.65;;;9.90;65.50;;;;;;5031999;28;20170;-65
2020/12/21 05:17:39;;;;;;;32.13;8.82;;;9.90;65.60;;;;;;5029652;28;20045;-65
2020/12/21 05:20:05;;;;;;;33.53;9.20;;;9.90;65.40;;;;;;5032669;28;20043;-65
2020/12/21 05:22:31;;;;;;;38.28;8.82;;;9.80;65.50;;;;;;5032483;28;20033;-65
2020/12/21 05:25:07;;;;;;;36.67;8.85;;;9.80;65.50;;;;;;5026300;28;20072;-65
2020/12/21 05:27:33;;;;;;;34.90;9.48;;;9.80;65.50;;;;;;5044739;28;20822;-65
2020/12/21 05:29:59;;;;;;;33.60;9.30;;;9.80;65.70;;;;;;5024506;28;20033;-65
2020/12/21 05:32:25;;;;;;;33.70;9.32;;;9.80;66.40;;;;;;5021633;28;20044;-65
2020/12/21 05:34:51;;;;;;;35.65;9.25;;;9.80;65.60;;;;;;5026688;28;20489;-65
2020/12/21 05:37:21;;;;;;;31.98;9.15;;;9.80;65.60;;;;;;5024233;28;20779;-65
2020/12/21 05:39:55;;;;;;;37.10;9.50;;;9.70;65.70;;;;;;5024939;28;20041;-65
2020/12/21 05:42:24;;;;;;;32.33;9.43;;;9.70;65.70;;;;;;5019963;28;20132;-65
2020/12/21 05:45:07;;;;;;;29.23;8.93;;;9.70;65.80;;;;;;5023542;28;20045;-65
2020/12/21 05:47:33;;;;;;;30.98;9.38;;;9.70;65.70;;;;;;5021013;28;20064;-65
2020/12/21 05:50:02;;;;;;;45.28;10.05;;;9.70;65.50;;;;;;5020552;28;20087;-65
2020/12/21 05:52:34;;;;;;;30.27;9.18;;;9.70;65.80;;;;;;5020863;28;20067;-65
2020/12/21 05:55:06;;;;;;;29.20;9.10;;;9.60;65.70;;;;;;5018715;28;20041;-65
2020/12/21 05:57:32;;;;;;;31.83;8.38;;;9.60;65.40;;;;;;5037442;28;20065;-65
2020/12/21 05:59:59;;;;;;;35.30;8.95;;;9.60;65.40;;;;;;5022083;28;20037;-65
2020/12/21 06:02:26;;;;;;;27.35;8.07;;;9.50;65.30;;;;;;5017771;28;20041;-65
2020/12/21 06:05:00;;;;;;;26.10;8.80;;;9.50;65.10;;;;;;5023774;28;20075;-65
2020/12/21 06:07:29;;;;;;;34.72;8.10;;;9.50;65.10;;;;;;5025221;28;20068;-65
2020/12/21 06:09:57;;;;;;;36.28;9.40;;;9.40;65.10;;;;;;5032595;28;20051;-65
2020/12/21 06:12:24;;;;;;;41.50;10.65;;;9.40;65.10;;;;;;5036912;28;20037;-65
2020/12/21 06:14:54;;;;;;;31.50;9.20;;;9.40;65.50;;;;;;5031200;28;20037;-65
2020/12/21 06:17:20;;;;;;;36.55;9.50;;;9.40;65.70;;;;;;5031430;28;20094;-65
2020/12/21 06:19:46;;;;;;;44.28;10.13;;;9.40;65.70;;;;;;5019556;28;20095;-65
2020/12/21 06:22:22;;;;;;;32.00;10.32;;;9.40;65.90;;;;;;5023645;28;20183;-65
2020/12/21 06:24:48;;;;;;;40.13;10.57;;;9.40;65.80;;;;;;5027771;28;20032;-65
2020/12/21 06:27:15;;;;;;;44.15;10.82;;;9.40;65.90;;;;;;5023791;28;20162;-65
2020/12/21 06:29:42;;;;;;;51.40;11.20;;;9.40;66.90;;;;;;5029030;28;20038;-65
2020/12/21 06:32:08;;;;;;;49.58;11.40;;;9.40;66.10;;;;;;5034305;28;20052;-65
2020/12/21 06:34:37;;;;;;;37.53;11.18;;;9.40;65.90;;;;;;5028607;28;20076;-65
2020/12/21 06:37:04;;;;;;;38.80;11.50;;;9.40;65.90;;;;;;5033151;28;20045;-65
2020/12/21 06:39:31;;;;;;;35.92;11.55;;;9.40;66.00;;;;;;5029663;28;20152;-65
2020/12/21 06:42:09;;;;;;;37.95;11.93;;;9.40;66.20;;;;;;5027999;28;20068;-65
2020/12/21 06:44:42;;;;;;;50.17;12.15;;;9.40;66.20;;;;;;5031562;28;20045;-65
2020/12/21 06:47:09;;;;;;;41.03;11.52;;;9.40;66.20;;;;;;5031420;28;20700;-65
2020/12/21 06:49:36;;;;;;;43.83;13.95;;;9.40;66.10;;;;;;5032574;28;20043;-65
2020/12/21 06:52:02;;;;;;;39.55;12.30;;;9.40;66.10;;;;;;5049856;28;20037;-65
2020/12/21 06:54:27;;;;;;;43.10;12.23;;;9.30;66.80;;;;;;5030225;28;20082;-65
2020/12/21 06:56:53;;;;;;;48.90;13.95;;;9.40;66.20;;;;;;5027376;28;20520;-65
2020/12/21 06:59:20;;;;;;;42.30;13.30;;;9.30;66.20;;;;;;5029286;28;20041;-65
2020/12/21 07:01:48;;;;;;;39.72;13.57;;;9.30;66.10;;;;;;5027410;28;20151;-65
2020/12/21 07:04:18;;;;;;;43.17;13.35;;;9.30;66.20;;;;;;5018946;28;20073;-65
2020/12/21 07:06:44;;;;;;;51.28;15.25;;;9.30;66.20;;;;;;5026020;28;20064;-65
2020/12/21 07:09:12;;;;;;;54.28;14.77;;;9.30;66.20;;;;;;5018762;28;20501;-65
2020/12/21 07:11:39;;;;;;;52.45;15.07;;;9.30;66.20;;;;;;5028402;28;20153;-65
2020/12/21 07:14:06;;;;;;;53.60;15.70;;;9.30;66.30;;;;;;5042099;28;20048;-65
2020/12/21 07:16:31;;;;;;;56.33;15.82;;;9.30;66.30;;;;;;5030128;28;20049;-65
2020/12/21 07:18:57;;;;;;;44.45;16.15;;;9.30;66.30;;;;;;5030541;28;20064;-65
2020/12/21 07:21:22;;;;;;;52.33;16.55;;;9.30;66.40;;;;;;5040129;28;20076;-65
2020/12/21 07:23:49;;;;;;;45.45;16.55;;;9.40;66.50;;;;;;5032450;28;20049;-65
2020/12/21 07:26:15;;;;;;;51.70;17.00;;;9.40;66.60;;;;;;5026115;28;20040;-65
2020/12/21 07:28:46;;;;;;;54.42;17.35;;;9.40;66.70;;;;;;5031615;28;20535;-65
2020/12/21 07:31:13;;;;;;;55.00;18.55;;;9.40;66.70;;;;;;5025731;28;20041;-65
2020/12/21 07:33:49;;;;;;;56.97;16.65;;;9.40;66.80;;;;;;5030317;28;20132;-65
2020/12/21 07:36:16;;;;;;;54.78;18.92;;;9.40;66.90;;;;;;5028789;28;20134;-65
2020/12/21 07:38:42;;;;;;;56.40;17.83;;;9.50;66.90;;;;;;5026106;28;20118;-65
2020/12/21 07:41:08;;;;;;;62.05;19.95;;;9.50;66.90;;;;;;5027796;28;20037;-65
2020/12/21 07:43:43;;;;;;;61.30;19.15;;;9.50;66.90;;;;;;5027520;28;20041;-65
2020/12/21 07:46:21;;;;;;;63.65;19.92;;;9.60;67.10;;;;;;5020152;28;20156;-65
2020/12/21 07:48:48;;;;;;;66.72;19.73;;;9.60;67.00;;;;;;5027140;28;20033;-65
2020/12/21 07:51:17;;;;;;;71.45;19.55;;;9.60;67.00;;;;;;5026318;28;20077;-65
2020/12/21 07:53:44;;;;;;;70.82;20.67;;;9.70;67.10;;;;;;5027440;28;20048;-65
2020/12/21 07:56:14;;;;;;;61.25;19.52;;;9.70;67.00;;;;;;5032358;28;20061;-65
2020/12/21 07:58:40;;;;;;;66.55;20.40;;;9.70;67.10;;;;;;5032255;28;20036;-65
2020/12/21 08:01:06;;;;;;;67.85;20.73;;;9.70;67.00;;;;;;5020585;28;20056;-65
2020/12/21 08:03:32;;;;;;;53.95;20.45;;;9.80;67.20;;;;;;5018634;28;20039;-65
2020/12/21 08:06:16;;;;;;;60.05;19.10;;;9.80;67.10;;;;;;5024551;28;20033;-65
2020/12/21 08:08:42;;;;;;;60.95;20.52;;;9.80;67.10;;;;;;5027298;28;20044;-65
2020/12/21 08:11:31;;;;;;;63.47;20.58;;;9.80;66.90;;;;;;5027285;28;20102;-65
2020/12/21 08:13:56;;;;;;;58.17;19.30;;;9.80;67.00;;;;;;5029934;28;20649;-65
2020/12/21 08:16:25;;;;;;;55.22;18.70;;;9.80;66.90;;;;;;5027448;28;20033;-65
2020/12/21 08:18:52;;;;;;;60.60;19.00;;;9.90;66.90;;;;;;5029214;28;20040;-65
2020/12/21 08:21:25;;;;;;;61.55;20.25;;;9.80;66.70;;;;;;5032044;28;20563;-65
2020/12/21 08:23:56;;;;;;;55.55;18.77;;;9.80;66.80;;;;;;5027757;28;20038;-65
2020/12/21 08:26:22;;;;;;;52.58;19.92;;;9.90;66.90;;;;;;5032134;28;20037;-65
2020/12/21 08:28:49;;;;;;;50.22;17.75;;;9.90;66.90;;;;;;5033433;28;20102;-65
2020/12/21 08:31:22;;;;;;;56.80;19.42;;;9.90;66.70;;;;;;5035324;28;20589;-65
2020/12/21 08:34:01;;;;;;;70.35;19.45;;;9.90;66.70;;;;;;5033233;28;20139;-65
2020/12/21 08:36:34;;;;;;;52.40;18.77;;;9.90;66.70;;;;;;5037101;28;20274;-65
2020/12/21 08:39:14;;;;;;;54.42;19.30;;;9.90;66.70;;;;;;5034495;28;20045;-65
2020/12/21 08:41:45;;;;;;;46.85;19.33;;;9.90;66.90;;;;;;5032299;28;20094;-65
2020/12/21 08:44:22;;;;;;;52.72;19.35;;;9.90;67.00;;;;;;5030862;28;20124;-65
2020/12/21 08:46:53;;;;;;;63.38;19.40;;;10.00;67.20;;;;;;5036546;28;20353;-65
2020/12/21 08:49:20;;;;;;;66.00;20.35;;;10.00;67.20;;;;;;5026669;28;20041;-65
2020/12/21 08:51:49;;;;;;;54.53;19.15;;;10.00;67.20;;;;;;5027127;28;20032;-65
2020/12/21 08:54:16;;;;;;;58.38;19.77;;;10.10;67.20;;;;;;5028103;28;20040;-65
2020/12/21 08:56:52;;;;;;;52.67;19.15;;;10.10;67.20;;;;;;5028754;28;20409;-66
2020/12/21 08:59:18;;;;;;;64.18;19.80;;;10.20;67.30;;;;;;5029846;28;20033;-66
2020/12/21 09:01:44;;;;;;;56.95;20.17;;;10.30;67.30;;;;;;5030252;28;20134;-65
2020/12/21 09:04:13;;;;;;;50.55;18.60;;;10.30;67.30;;;;;;5029207;28;20064;-65
2020/12/21 09:06:39;;;;;;;57.35;19.50;;;10.40;67.40;;;;;;5028177;28;20552;-65
2020/12/21 09:09:06;;;;;;;58.08;20.08;;;10.50;67.50;;;;;;5029177;28;20052;-64
2020/12/21 09:11:31;;;;;;;50.33;19.42;;;10.60;67.60;;;;;;5036305;28;20091;-64
2020/12/21 09:13:57;;;;;;;45.75;19.00;;;10.70;67.60;;;;;;5023174;28;20134;-65
2020/12/21 09:16:28;;;;;;;46.35;17.23;;;10.90;67.70;;;;;;5026395;28;20552;-65
2020/12/21 09:18:55;;;;;;;44.58;16.98;;;11.00;67.50;;;;;;5024879;28;20052;-65
2020/12/21 09:21:22;;;;;;;54.25;17.48;;;11.10;67.40;;;;;;5026270;28;20429;-65
2020/12/21 09:23:49;;;;;;;43.22;16.95;;;11.10;67.20;;;;;;5027348;28;20124;-65
2020/12/21 09:26:15;;;;;;;42.47;15.85;;;11.20;67.10;;;;;;5027289;28;20037;-65
2020/12/21 09:28:41;;;;;;;36.47;13.85;;;11.20;67.00;;;;;;5021381;28;20092;-65
2020/12/21 09:31:09;;;;;;;42.45;15.18;;;11.20;66.80;;;;;;5019168;28;20428;-65
2020/12/21 09:33:35;;;;;;;30.60;13.30;;;11.20;66.70;;;;;;5032562;28;20099;-65
2020/12/21 09:36:00;;;;;;;35.67;12.75;;;11.30;66.70;;;;;;5018957;28;20345;-65
2020/12/21 09:38:26;;;;;;;36.97;13.43;;;11.30;66.60;;;;;;5027478;28;20052;-65
2020/12/21 09:40:52;;;;;;;38.38;12.48;;;11.20;66.70;;;;;;5028643;28;20052;-65
2020/12/21 09:43:17;;;;;;;33.45;12.00;;;11.30;66.70;;;;;;5029926;28;20228;-65
2020/12/21 09:45:43;;;;;;;36.00;12.82;;;11.30;66.70;;;;;;5026385;28;20079;-65
2020/12/21 09:48:09;;;;;;;27.02;11.15;;;11.30;66.70;;;;;;5028145;28;20075;-65
2020/12/21 09:50:34;;;;;;;26.90;11.07;;;11.40;66.70;;;;;;5029663;28;20125;-65
2020/12/21 09:53:00;;;;;;;29.83;10.27;;;11.40;66.60;;;;;;5030914;28;20130;-65
2020/12/21 09:55:25;;;;;;;25.15;9.60;;;11.40;66.50;;;;;;5026993;28;20043;-65
2020/12/21 09:57:51;;;;;;;31.73;9.77;;;11.50;66.60;;;;;;5025942;28;20037;-65
2020/12/21 10:00:16;;;;;;;32.53;10.25;;;11.50;66.50;;;;;;5023614;28;20406;-65
2020/12/21 10:02:42;;;;;;;25.20;8.88;;;11.60;66.50;;;;;;5026960;28;20029;-65
2020/12/21 10:05:08;;;;;;;22.67;8.45;;;11.70;66.70;;;;;;5030621;28;20159;-65
2020/12/21 10:07:33;;;;;;;22.17;8.00;;;11.80;66.60;;;;;;5024366;28;20167;-65
2020/12/21 10:09:59;;;;;;;25.70;8.15;;;11.90;66.90;;;;;;5022367;28;21937;-65
2020/12/21 10:12:24;;;;;;;20.77;7.75;;;12.10;67.30;;;;;;5022908;28;20567;-65
2020/12/21 10:14:50;;;;;;;15.30;6.72;;;12.60;67.70;;;;;;5023558;28;20034;-65
2020/12/21 10:17:15;;;;;;;17.00;6.90;;;13.00;67.10;;;;;;5022740;28;20539;-65
2020/12/21 10:19:41;;;;;;;15.70;5.70;;;13.60;66.80;;;;;;5020302;28;20462;-65
2020/12/21 10:22:07;;;;;;;19.50;5.22;;;14.10;66.00;;;;;;5021853;28;20072;-65
2020/12/21 10:24:34;;;;;;;13.18;5.35;;;14.60;64.00;;;;;;5021983;28;20057;-65
2020/12/21 10:27:00;;;;;;;15.52;4.80;;;15.00;62.80;;;;;;5017890;28;20037;-65
2020/12/21 10:29:26;;;;;;;13.25;5.38;;;15.30;61.30;;;;;;5017954;28;20627;-65
2020/12/21 10:31:51;;;;;;;16.10;5.32;;;15.40;60.10;;;;;;5017901;28;20421;-65
2020/12/21 10:34:17;;;;;;;10.48;4.10;;;15.60;59.70;;;;;;5020001;28;20056;-65
2020/12/21 10:36:42;;;;;;;10.93;4.30;;;15.70;59.00;;;;;;5021759;28;24285;-65
2020/12/21 10:39:08;;;;;;;14.55;4.05;;;15.90;58.00;;;;;;5020817;28;20041;-65
2020/12/21 10:41:34;;;;;;;12.10;4.63;;;15.90;56.80;;;;;;5016047;28;20527;-65
2020/12/21 10:44:00;;;;;;;11.75;4.88;;;15.80;56.50;;;;;;5025135;28;20079;-65
2020/12/21 10:46:26;;;;;;;15.80;4.45;;;15.70;56.00;;;;;;5020396;28;20087;-65
2020/12/21 10:48:52;;;;;;;14.32;4.60;;;15.50;56.10;;;;;;5017552;28;20120;-65
2020/12/21 10:51:28;;;;;;;11.15;3.80;;;15.60;56.60;;;;;;5022274;28;20579;-65
2020/12/21 10:53:54;;;;;;;15.48;4.28;;;15.70;55.70;;;;;;5020634;28;20041;-65
2020/12/21 10:56:19;;;;;;;15.77;4.45;;;15.70;55.50;;;;;;5019159;28;20037;-65
2020/12/21 10:58:45;;;;;;;11.23;3.38;;;15.60;55.10;;;;;;5018695;28;20041;-65
2020/12/21 11:01:11;;;;;;;11.38;4.15;;;15.60;55.20;;;;;;5020753;28;20645;-65
2020/12/21 11:03:36;;;;;;;11.70;4.05;;;15.60;54.90;;;;;;5023625;28;20089;-65
2020/12/21 11:06:02;;;;;;;12.02;3.72;;;15.50;54.80;;;;;;5024284;28;21366;-65
2020/12/21 11:08:28;;;;;;;16.58;3.95;;;15.40;54.30;;;;;;5023921;28;20501;-65
2020/12/21 11:10:54;;;;;;;11.13;3.85;;;15.20;54.50;;;;;;5022850;28;20144;-65
2020/12/21 11:13:20;;;;;;;12.50;4.13;;;15.00;54.20;;;;;;5024018;28;21144;-65
2020/12/21 11:15:45;;;;;;;10.48;3.42;;;14.70;54.40;;;;;;5020603;28;20037;-65
2020/12/21 11:18:11;;;;;;;12.70;3.63;;;14.50;54.60;;;;;;5020426;28;20148;-65
2020/12/21 11:20:36;;;;;;;15.77;4.00;;;14.30;54.90;;;;;;5043128;28;20037;-65
2020/12/21 11:23:02;;;;;;;10.90;4.10;;;14.20;55.20;;;;;;5028674;28;20032;-65
2020/12/21 11:25:28;;;;;;;14.40;4.35;;;14.00;55.40;;;;;;5024250;28;20042;-65
2020/12/21 11:27:53;;;;;;;12.65;4.10;;;13.90;55.70;;;;;;5027037;28;20029;-65
2020/12/21 11:30:19;;;;;;;23.10;4.93;;;13.70;55.90;;;;;;5045077;28;20069;-65
2020/12/21 11:32:44;;;;;;;11.70;3.42;;;13.70;56.10;;;;;;5030074;28;20041;-65
2020/12/21 11:35:10;;;;;;;14.68;4.07;;;13.60;56.50;;;;;;5029095;28;20726;-65
2020/12/21 11:37:36;;;;;;;15.88;3.75;;;13.50;56.90;;;;;;5043423;28;20033;-65
2020/12/21 11:40:04;;;;;;;16.17;3.85;;;13.60;57.20;;;;;;5027565;28;20040;-65
2020/12/21 11:42:30;;;;;;;10.77;3.75;;;13.60;57.20;;;;;;5029502;28;20052;-65
2020/12/21 11:44:55;;;;;;;10.57;3.72;;;13.60;57.00;;;;;;5021989;28;20119;-66
2020/12/21 11:47:21;;;;;;;9.57;3.80;;;13.60;57.00;;;;;;5028551;28;20037;-66
2020/12/21 11:49:46;;;;;;;15.00;3.97;;;13.60;57.20;;;;;;5021190;28;20041;-66
2020/12/21 11:52:12;;;;;;;12.90;3.90;;;13.60;57.30;;;;;;5024615;28;20041;-66
2020/12/21 11:54:37;;;;;;;11.23;3.42;;;13.60;57.20;;;;;;5019698;28;20056;-65
2020/12/21 11:57:04;;;;;;;9.30;3.63;;;13.60;57.20;;;;;;5020730;28;20036;-65
2020/12/21 11:59:29;;;;;;;11.65;3.58;;;13.70;57.20;;;;;;5015761;28;20041;-65
2020/12/21 12:01:59;;;;;;;9.18;3.75;;;13.60;57.20;;;;;;5022831;28;20045;-65
2020/12/21 12:04:29;;;;;;;14.63;3.85;;;13.70;57.20;;;;;;5019147;28;20045;-65
2020/12/21 12:06:55;;;;;;;11.27;3.83;;;13.70;57.10;;;;;;5017695;28;20041;-65
2020/12/21 12:09:24;;;;;;;9.48;2.92;;;13.60;57.10;;;;;;5018528;28;20042;-65
2020/12/21 12:11:51;;;;;;;12.55;3.42;;;13.60;57.10;;;;;;5019202;28;20833;-65
2020/12/21 12:14:16;;;;;;;16.85;4.15;;;13.60;57.10;;;;;;5020057;28;20033;-65
2020/12/21 12:16:42;;;;;;;10.15;3.90;;;13.50;57.10;;;;;;5019955;28;20044;-65
2020/12/21 12:19:07;;;;;;;16.35;3.67;;;13.50;57.20;;;;;;5028394;28;20062;-65
2020/12/21 12:21:33;;;;;;;13.02;4.28;;;13.40;57.20;;;;;;5021771;28;20577;-65
2020/12/21 12:23:59;;;;;;;9.88;3.20;;;13.40;57.30;;;;;;5029884;28;20148;-65
2020/12/21 12:26:26;;;;;;;15.07;7.68;;;13.40;57.50;;;;;;5023516;28;20048;-65
2020/12/21 12:28:53;;;;;;;9.85;3.67;;;13.30;57.60;;;;;;5033153;28;20075;-65
2020/12/21 12:31:20;;;;;;;10.55;3.72;;;13.30;57.60;;;;;;5027175;28;20041;-65
2020/12/21 12:33:47;;;;;;;10.25;3.80;;;13.30;57.70;;;;;;5032088;28;20048;-65
2020/12/21 12:36:17;;;;;;;13.40;3.63;;;13.30;57.80;;;;;;5030951;28;20433;-65
2020/12/21 12:38:42;;;;;;;10.85;3.60;;;13.30;57.70;;;;;;5029773;28;20081;-65